Pulpca — PHMT — position and weather

sailwx.info

Track history (hours):
 
Tides and Currents Weather Stations Pressure Air Temp Water Temp Dewpoint Dewpoint Depression Visibility Wind Speed Wind Dir Waves Ship Positions

Pulpca

Last reported at 2014-Oct-02 01:33 UTC. Time now 2014-Oct-02 02:35 UTC.
Position N 54°16' E 011°34'.

Length 205 m; draft 6.7 m.

Type: Ship (hazmat cat A). MMSI: 245097000.

Date/timePositionNaut miles runAvg speedWind from/ knotsBaromVisibWave heightAir tempDewpointWater temp
2014-Oct-02 01:33N 54°16' E 011°34'1717.0
2014-Oct-02 00:33N 54°25' E 011°59'1514.8
2014-Oct-01 23:34N 54°36' E 012°16'1818.1
2014-Oct-01 22:34N 54°47' E 012°41'1817.8
2014-Oct-01 21:34N 54°53' E 013°10'1717.2
2014-Oct-01 20:34N 54°60' E 013°38'1717.2
2014-Oct-01 19:33N 55°06' E 014°06'1717.2
2014-Oct-01 18:33N 55°19' E 014°26'1717.2
2014-Oct-01 17:33N 55°31' E 014°48'1717.3
2014-Oct-01 16:33N 55°40' E 015°14'1717.2
2014-Oct-01 15:32N 55°49' E 015°40'1717.4
2014-Oct-01 14:33N 55°58' E 016°07'31117.1
2014-Sep-30 20:26N 59°39' E 022°57'10 9.9
2014-Sep-30 19:23N 59°49' E 022°57'1 0.2
2014-Sep-30 15:32N 59°49' E 022°57'2020.7
2014-Sep-30 14:34N 59°35' E 023°26'9 1.4
2014-Sep-30 08:16N 59°41' E 023°12'1115.7
2014-Sep-30 07:32N 59°49' E 022°57'0 0.0
2014-Sep-30 03:15N 59°49' E 022°57'0 0.0
2014-Sep-30 02:09N 59°49' E 022°57'0 0.0
2014-Sep-30 01:21N 59°49' E 022°57'0 0.0
2014-Sep-30 00:27N 59°49' E 022°57'0 0.0
2014-Sep-29 20:15N 59°49' E 022°57'0 0.0
2014-Sep-29 16:30N 59°49' E 022°57'2 2.5
2014-Sep-29 15:33N 59°47' E 022°59'33119.2
2014-Sep-28 22:20N 55°47' E 015°52'1519.9
2014-Sep-28 21:33N 55°38' E 015°29'2019.9
2014-Sep-28 20:34N 55°29' E 014°58'1919.3
2014-Sep-28 19:33N 55°17' E 014°31'2019.7
2014-Sep-28 18:33N 55°02' E 014°09'2020.0
2014-Sep-28 17:34N 54°55' E 013°36'1919.4
2014-Sep-28 16:33N 54°48' E 013°04'2019.7
2014-Sep-28 15:33N 54°40' E 012°33'2019.5
2014-Sep-28 14:33N 54°26' E 012°11'2019.6
2014-Sep-28 13:33N 54°17' E 011°40'2019.8
2014-Sep-28 12:33N 54°07' E 011°12'13 1.2
2014-Sep-28 02:26N 53°59' E 010°55'1315.3
2014-Sep-28 01:33N 54°08' E 011°11'1717.1
2014-Sep-28 00:33N 54°17' E 011°36'1817.8
2014-Sep-27 23:33N 54°26' E 012°02'1615.8
2014-Sep-27 22:33N 54°38' E 012°20'1817.3
2014-Sep-27 21:32N 54°47' E 012°46'1818.3
2014-Sep-27 20:33N 54°54' E 013°15'1817.9
2014-Sep-27 19:33N 55°01' E 013°44'1817.5
2014-Sep-27 18:33N 55°08' E 014°12'1817.7
2014-Sep-27 17:33N 55°22' E 014°31'1817.7
2014-Sep-27 16:33N 55°32' E 014°56'1817.8
2014-Sep-27 15:33N 55°41' E 015°23'1817.8
2014-Sep-27 14:33N 55°50' E 015°50'1717.5
2014-Sep-27 13:33N 55°59' E 016°18'30417.8
2014-Sep-26 20:26N 59°38' E 022°53'1112.7
2014-Sep-26 19:33N 59°49' E 022°56'0 0.1
2014-Sep-26 16:06N 59°49' E 022°57'1 1.3
2014-Sep-26 15:33N 59°49' E 022°57'1919.2
2014-Sep-26 14:34N 59°36' E 023°24'8 1.5
2014-Sep-26 09:24N 59°31' E 023°37'1921.7
2014-Sep-26 08:33N 59°42' E 023°07'8 1.7
2014-Sep-26 03:33N 59°49' E 022°56'34517.8
2014-Sep-25 08:08N 55°38' E 015°31'1221.0
2014-Sep-25 07:33N 55°33' E 015°12'1717.5
2014-Sep-25 06:33N 55°25' E 014°44'1515.5
2014-Sep-25 05:33N 55°14' E 014°25'1818.3
2014-Sep-25 04:33N 55°00' E 014°03'1818.2
2014-Sep-25 03:33N 54°54' E 013°34'1818.5
2014-Sep-25 02:33N 54°48' E 013°03'1817.9
2014-Sep-25 01:33N 54°41' E 012°35'1817.6
2014-Sep-25 00:33N 54°28' E 012°14'1818.1
2014-Sep-24 23:33N 54°19' E 011°47'1818.5
2014-Sep-24 22:33N 54°10' E 011°20'5 0.2
2014-Sep-24 02:34N 54°08' E 011°12'1717.3
2014-Sep-24 01:34N 54°17' E 011°36'1717.0
2014-Sep-24 00:34N 54°26' E 012°02'1515.2
2014-Sep-23 23:34N 54°37' E 012°19'1716.9
2014-Sep-23 22:34N 54°48' E 012°42'1717.2
2014-Sep-23 21:34N 54°54' E 013°10'1717.4
2014-Sep-23 20:34N 54°59' E 013°39'1716.9
2014-Sep-23 19:33N 55°06' E 014°06'1717.2
2014-Sep-23 18:33N 55°19' E 014°25'1717.1
2014-Sep-23 17:34N 55°30' E 014°48'1716.8
2014-Sep-23 16:33N 55°39' E 015°14'1717.0
2014-Sep-23 15:32N 55°48' E 015°40'1717.0
2014-Sep-23 14:33N 55°56' E 016°06'32012.8
2014-Sep-22 13:30N 59°49' E 022°57'0 0.0
2014-Sep-22 12:18N 59°49' E 022°57'0 0.0
2014-Sep-22 03:06N 59°49' E 022°57'0 0.0
2014-Sep-22 02:06N 59°49' E 022°57'  
Track history (hours):
 
Tides and Currents Weather Stations Pressure Air Temp Water Temp Dewpoint Dewpoint Depression Visibility Wind Speed Wind Dir Waves Ship Positions

Pulpca

Last reported at 2014-Oct-02 01:33 UTC. Time now 2014-Oct-02 02:35 UTC.
Position N 54°16' E 011°34'.

Length 205 m; draft 6.7 m.

Type: Ship (hazmat cat A). MMSI: 245097000.

Date/timePositionNaut miles runAvg speedWind from/ knotsBaromVisibWave heightAir tempDewpointWater temp
2014-Oct-02 01:33N 54°16' E 011°34'1717.0
2014-Oct-02 00:33N 54°25' E 011°59'1514.8
2014-Oct-01 23:34N 54°36' E 012°16'1818.1
2014-Oct-01 22:34N 54°47' E 012°41'1817.8
2014-Oct-01 21:34N 54°53' E 013°10'1717.2
2014-Oct-01 20:34N 54°60' E 013°38'1717.2
2014-Oct-01 19:33N 55°06' E 014°06'1717.2
2014-Oct-01 18:33N 55°19' E 014°26'1717.2
2014-Oct-01 17:33N 55°31' E 014°48'1717.3
2014-Oct-01 16:33N 55°40' E 015°14'1717.2
2014-Oct-01 15:32N 55°49' E 015°40'1717.4
2014-Oct-01 14:33N 55°58' E 016°07'31117.1
2014-Sep-30 20:26N 59°39' E 022°57'10 9.9
2014-Sep-30 19:23N 59°49' E 022°57'1 0.2
2014-Sep-30 15:32N 59°49' E 022°57'2020.7
2014-Sep-30 14:34N 59°35' E 023°26'9 1.4
2014-Sep-30 08:16N 59°41' E 023°12'1115.7
2014-Sep-30 07:32N 59°49' E 022°57'0 0.0
2014-Sep-30 03:15N 59°49' E 022°57'0 0.0
2014-Sep-30 02:09N 59°49' E 022°57'0 0.0
2014-Sep-30 01:21N 59°49' E 022°57'0 0.0
2014-Sep-30 00:27N 59°49' E 022°57'0 0.0
2014-Sep-29 20:15N 59°49' E 022°57'0 0.0
2014-Sep-29 16:30N 59°49' E 022°57'2 2.5
2014-Sep-29 15:33N 59°47' E 022°59'33119.2
2014-Sep-28 22:20N 55°47' E 015°52'1519.9
2014-Sep-28 21:33N 55°38' E 015°29'2019.9
2014-Sep-28 20:34N 55°29' E 014°58'1919.3
2014-Sep-28 19:33N 55°17' E 014°31'2019.7
2014-Sep-28 18:33N 55°02' E 014°09'2020.0
2014-Sep-28 17:34N 54°55' E 013°36'1919.4
2014-Sep-28 16:33N 54°48' E 013°04'2019.7
2014-Sep-28 15:33N 54°40' E 012°33'2019.5
2014-Sep-28 14:33N 54°26' E 012°11'2019.6
2014-Sep-28 13:33N 54°17' E 011°40'2019.8
2014-Sep-28 12:33N 54°07' E 011°12'13 1.2
2014-Sep-28 02:26N 53°59' E 010°55'1315.3
2014-Sep-28 01:33N 54°08' E 011°11'1717.1
2014-Sep-28 00:33N 54°17' E 011°36'1817.8
2014-Sep-27 23:33N 54°26' E 012°02'1615.8
2014-Sep-27 22:33N 54°38' E 012°20'1817.3
2014-Sep-27 21:32N 54°47' E 012°46'1818.3
2014-Sep-27 20:33N 54°54' E 013°15'1817.9
2014-Sep-27 19:33N 55°01' E 013°44'1817.5
2014-Sep-27 18:33N 55°08' E 014°12'1817.7
2014-Sep-27 17:33N 55°22' E 014°31'1817.7
2014-Sep-27 16:33N 55°32' E 014°56'1817.8
2014-Sep-27 15:33N 55°41' E 015°23'1817.8
2014-Sep-27 14:33N 55°50' E 015°50'1717.5
2014-Sep-27 13:33N 55°59' E 016°18'30417.8
2014-Sep-26 20:26N 59°38' E 022°53'1112.7
2014-Sep-26 19:33N 59°49' E 022°56'0 0.1
2014-Sep-26 16:06N 59°49' E 022°57'1 1.3
2014-Sep-26 15:33N 59°49' E 022°57'1919.2
2014-Sep-26 14:34N 59°36' E 023°24'8 1.5
2014-Sep-26 09:24N 59°31' E 023°37'1921.7
2014-Sep-26 08:33N 59°42' E 023°07'8 1.7
2014-Sep-26 03:33N 59°49' E 022°56'34517.8
2014-Sep-25 08:08N 55°38' E 015°31'1221.0
2014-Sep-25 07:33N 55°33' E 015°12'1717.5
2014-Sep-25 06:33N 55°25' E 014°44'1515.5
2014-Sep-25 05:33N 55°14' E 014°25'1818.3
2014-Sep-25 04:33N 55°00' E 014°03'1818.2
2014-Sep-25 03:33N 54°54' E 013°34'1818.5
2014-Sep-25 02:33N 54°48' E 013°03'1817.9
2014-Sep-25 01:33N 54°41' E 012°35'1817.6
2014-Sep-25 00:33N 54°28' E 012°14'1818.1
2014-Sep-24 23:33N 54°19' E 011°47'1818.5
2014-Sep-24 22:33N 54°10' E 011°20'5 0.2
2014-Sep-24 02:34N 54°08' E 011°12'1717.3
2014-Sep-24 01:34N 54°17' E 011°36'1717.0
2014-Sep-24 00:34N 54°26' E 012°02'1515.2
2014-Sep-23 23:34N 54°37' E 012°19'1716.9
2014-Sep-23 22:34N 54°48' E 012°42'1717.2
2014-Sep-23 21:34N 54°54' E 013°10'1717.4
2014-Sep-23 20:34N 54°59' E 013°39'1716.9
2014-Sep-23 19:33N 55°06' E 014°06'1717.2
2014-Sep-23 18:33N 55°19' E 014°25'1717.1
2014-Sep-23 17:34N 55°30' E 014°48'1716.8
2014-Sep-23 16:33N 55°39' E 015°14'1717.0
2014-Sep-23 15:32N 55°48' E 015°40'1717.0
2014-Sep-23 14:33N 55°56' E 016°06'32012.8
2014-Sep-22 13:30N 59°49' E 022°57'0 0.0
2014-Sep-22 12:18N 59°49' E 022°57'0 0.0
2014-Sep-22 03:06N 59°49' E 022°57'0 0.0
2014-Sep-22 02:06N 59°49' E 022°57'  

Dump ship's entire track history